createdAt,value
2023-01-05T00:01:33.455Z,0.50
2023-01-05T00:04:01.454Z,0.87
2023-01-05T00:06:29.515Z,0.40
2023-01-05T00:08:57.566Z,0.63
2023-01-05T00:11:45.522Z,0.47
2023-01-05T00:14:32.968Z,0.50
2023-01-05T00:17:18.353Z,0.40
2023-01-05T00:20:04.201Z,0.40
2023-01-05T00:22:34.337Z,0.40
2023-01-05T00:25:11.812Z,0.50
2023-01-05T00:27:43.079Z,0.60
2023-01-05T00:30:13.044Z,1.00
2023-01-05T00:32:43.385Z,0.47
2023-01-05T00:35:12.799Z,0.40
2023-01-05T00:37:41.361Z,0.50
2023-01-05T00:40:11.474Z,0.83
2023-01-05T00:42:41.162Z,0.40
2023-01-05T00:45:11.588Z,0.40
2023-01-05T00:47:39.767Z,0.70
2023-01-05T00:50:09.600Z,0.40
2023-01-05T00:52:37.574Z,0.40
2023-01-05T00:55:06.086Z,0.50
2023-01-05T00:57:33.980Z,0.50
2023-01-05T01:00:03.559Z,0.50
2023-01-05T01:02:31.576Z,0.50
2023-01-05T01:04:59.680Z,0.50
2023-01-05T01:07:27.624Z,0.60
2023-01-05T01:09:55.517Z,0.40
2023-01-05T01:12:23.431Z,0.40
2023-01-05T01:14:51.383Z,0.40
2023-01-05T01:17:20.826Z,0.40
2023-01-05T01:19:48.899Z,0.40
2023-01-05T01:22:16.808Z,0.50
2023-01-05T01:24:44.785Z,0.40
2023-01-05T01:27:12.790Z,0.50
2023-01-05T01:29:40.802Z,0.40
2023-01-05T01:32:08.757Z,0.87
2023-01-05T01:34:39.454Z,0.50
2023-01-05T01:37:07.354Z,0.40
2023-01-05T01:39:35.388Z,0.40
2023-01-05T01:42:03.404Z,0.87
2023-01-05T01:44:55.966Z,0.47
2023-01-05T01:47:29.910Z,0.40
2023-01-05T01:50:02.175Z,0.40
2023-01-05T01:52:32.124Z,0.40
2023-01-05T01:55:02.000Z,0.40
2023-01-05T01:57:30.529Z,0.40
2023-01-05T02:00:01.637Z,0.50
2023-01-05T02:02:30.550Z,0.40
2023-01-05T02:05:04.553Z,0.40
2023-01-05T02:07:35.695Z,0.40
2023-01-05T02:10:05.409Z,0.50
2023-01-05T02:12:45.775Z,0.50
2023-01-05T02:15:23.547Z,0.60
2023-01-05T02:18:05.457Z,0.50
2023-01-05T02:20:52.587Z,0.40
2023-01-05T02:23:48.498Z,0.40
2023-01-05T02:26:41.161Z,0.40
2023-01-05T02:29:37.836Z,0.50
2023-01-05T02:32:14.692Z,0.50
2023-01-05T02:34:48.471Z,0.40
2023-01-05T02:37:23.531Z,0.50
2023-01-05T02:39:57.767Z,0.50
2023-01-05T02:42:28.457Z,0.40
2023-01-05T02:44:56.345Z,0.40
2023-01-05T02:47:44.952Z,0.50
2023-01-05T02:50:17.840Z,0.60
2023-01-05T02:52:54.614Z,0.40
2023-01-05T02:55:28.966Z,0.40
2023-01-05T02:58:01.407Z,0.40
2023-01-05T03:00:34.435Z,0.40
2023-01-05T03:03:08.106Z,0.40
2023-01-05T03:05:41.350Z,0.40
2023-01-05T03:08:26.324Z,0.40
2023-01-05T03:11:21.502Z,0.50
2023-01-05T03:13:54.678Z,0.50
2023-01-05T03:16:27.306Z,0.40
2023-01-05T03:19:17.710Z,0.40
2023-01-05T03:22:03.689Z,0.40
2023-01-05T03:24:50.108Z,0.40
2023-01-05T03:27:36.411Z,0.77
2023-01-05T03:30:22.379Z,0.50
2023-01-05T03:33:11.585Z,0.40
2023-01-05T03:35:44.973Z,0.40
2023-01-05T03:38:18.768Z,0.60
2023-01-05T03:40:47.796Z,0.40
2023-01-05T03:43:15.838Z,0.40
2023-01-05T03:45:46.583Z,0.63
2023-01-05T03:48:14.516Z,0.40
2023-01-05T03:50:43.820Z,0.40
2023-01-05T03:53:11.731Z,0.40
2023-01-05T03:55:39.697Z,0.70
2023-01-05T03:58:07.656Z,0.40
2023-01-05T04:00:35.670Z,0.40
2023-01-05T04:03:03.920Z,0.43
2023-01-05T04:05:31.941Z,0.40
2023-01-05T04:08:01.358Z,0.40
2023-01-05T04:10:29.294Z,0.40
2023-01-05T04:12:57.354Z,0.40
2023-01-05T04:15:25.332Z,0.50
2023-01-05T04:17:53.271Z,0.40
2023-01-05T04:20:21.329Z,0.40
2023-01-05T04:22:49.322Z,0.40
2023-01-05T04:25:18.945Z,0.50
2023-01-05T04:27:46.845Z,0.40
2023-01-05T04:30:14.888Z,0.40
2023-01-05T04:32:42.798Z,0.73
2023-01-05T04:35:11.538Z,0.40
2023-01-05T04:37:39.804Z,0.40
2023-01-05T04:40:08.653Z,0.40
2023-01-05T04:42:37.895Z,0.50
2023-01-05T04:45:06.522Z,0.40
2023-01-05T04:47:34.424Z,0.40
2023-01-05T04:50:02.383Z,0.40
2023-01-05T04:52:30.299Z,0.40
2023-01-05T04:54:58.285Z,0.40
2023-01-05T04:57:26.262Z,0.40
2023-01-05T04:59:55.523Z,0.50
2023-01-05T05:02:23.706Z,0.50
2023-01-05T05:04:51.773Z,0.50
2023-01-05T05:07:19.974Z,0.50
2023-01-05T05:09:47.905Z,0.40
2023-01-05T05:12:15.853Z,0.40
2023-01-05T05:14:43.742Z,0.50
2023-01-05T05:17:13.010Z,0.40
2023-01-05T05:19:40.933Z,0.40
2023-01-05T05:22:09.078Z,0.40
2023-01-05T05:24:36.973Z,0.50
2023-01-05T05:27:05.115Z,0.40
2023-01-05T05:29:33.371Z,0.40
2023-01-05T05:32:01.373Z,0.40
2023-01-05T05:34:30.628Z,0.50
2023-01-05T05:36:58.525Z,0.40
2023-01-05T05:39:26.435Z,0.40
2023-01-05T05:41:54.364Z,0.40
2023-01-05T05:44:22.355Z,0.40
2023-01-05T05:46:50.525Z,0.40
2023-01-05T05:49:18.503Z,0.40
2023-01-05T05:51:47.737Z,0.40
2023-01-05T05:54:15.822Z,0.40
2023-01-05T05:56:43.787Z,0.40
2023-01-05T05:59:11.691Z,0.40
2023-01-05T06:01:39.772Z,0.40
2023-01-05T06:04:07.786Z,0.40
2023-01-05T06:06:35.688Z,0.40
2023-01-05T06:09:05.098Z,0.40
2023-01-05T06:11:33.083Z,0.40
2023-01-05T06:14:03.005Z,0.40
2023-01-05T06:16:31.117Z,0.40
2023-01-05T06:18:59.049Z,0.40
2023-01-05T06:21:27.017Z,0.50
2023-01-05T06:23:54.923Z,0.40
2023-01-05T06:26:24.226Z,0.40
2023-01-05T06:28:52.148Z,0.40
2023-01-05T06:31:20.120Z,0.50
2023-01-05T06:33:48.046Z,0.40
2023-01-05T06:36:16.304Z,0.50
2023-01-05T06:38:44.318Z,0.40
2023-01-05T06:41:12.273Z,0.40
2023-01-05T06:43:41.521Z,0.60
2023-01-05T06:46:09.470Z,0.40
2023-01-05T06:48:37.381Z,0.87
2023-01-05T06:51:05.486Z,0.40
2023-01-05T06:53:33.377Z,0.40
2023-01-05T06:56:01.306Z,0.50
2023-01-05T06:58:29.206Z,0.40
2023-01-05T07:00:58.506Z,0.50
2023-01-05T07:03:26.784Z,0.50
2023-01-05T07:05:54.779Z,0.50
2023-01-05T07:08:22.756Z,0.40
2023-01-05T07:10:50.652Z,0.40
2023-01-05T07:13:18.572Z,0.50
2023-01-05T07:15:46.465Z,0.40
2023-01-05T07:18:15.742Z,0.40
2023-01-05T07:20:43.649Z,0.40
2023-01-05T07:23:11.557Z,0.40
2023-01-05T07:25:39.454Z,0.40
2023-01-05T07:28:07.430Z,0.50
2023-01-05T07:30:35.347Z,0.40
2023-01-05T07:33:03.267Z,0.50
2023-01-05T07:35:33.633Z,0.40
2023-01-05T07:38:01.555Z,0.50
2023-01-05T07:40:29.532Z,0.40
2023-01-05T07:42:57.482Z,0.50
2023-01-05T07:45:25.459Z,0.60
2023-01-05T07:47:53.423Z,0.60
2023-01-05T07:50:21.291Z,0.40
2023-01-05T07:52:50.540Z,0.50
2023-01-05T07:55:18.713Z,0.40
2023-01-05T07:57:47.004Z,0.40
2023-01-05T08:00:15.549Z,0.40
2023-01-05T08:02:44.201Z,0.40
2023-01-05T08:05:12.160Z,0.40
2023-01-05T08:07:40.065Z,0.40
2023-01-05T08:10:29.507Z,0.40
2023-01-05T08:13:19.393Z,0.40
2023-01-05T08:15:51.006Z,0.93
2023-01-05T08:18:20.327Z,0.40
2023-01-05T08:20:52.890Z,0.40
2023-01-05T08:23:25.966Z,0.50
2023-01-05T08:25:56.646Z,0.40
2023-01-05T08:28:29.933Z,0.50
2023-01-05T08:31:03.178Z,0.50
2023-01-05T08:33:31.266Z,0.40
2023-01-05T08:35:59.207Z,0.50
2023-01-05T08:38:27.488Z,0.40
2023-01-05T08:40:59.817Z,0.50
2023-01-05T08:43:27.943Z,0.40
2023-01-05T08:45:55.897Z,0.93
2023-01-05T08:48:23.892Z,0.50
2023-01-05T08:50:51.773Z,0.40
2023-01-05T08:53:19.665Z,0.40
2023-01-05T08:55:47.548Z,0.40
2023-01-05T08:58:16.828Z,0.50
2023-01-05T09:00:44.827Z,0.50
2023-01-05T09:03:12.928Z,0.40
2023-01-05T09:05:40.912Z,0.40
2023-01-05T09:08:08.827Z,0.47
2023-01-05T09:10:38.147Z,0.60
2023-01-05T09:13:06.063Z,0.40
2023-01-05T09:15:36.319Z,0.40
2023-01-05T09:18:04.335Z,0.50
2023-01-05T09:20:39.409Z,0.40
2023-01-05T09:23:07.871Z,0.40
2023-01-05T09:25:35.791Z,0.40
2023-01-05T09:28:03.701Z,0.40
2023-01-05T09:30:40.078Z,0.40
2023-01-05T09:33:11.324Z,0.40
2023-01-05T09:35:39.235Z,0.40
2023-01-05T09:38:07.233Z,0.40
2023-01-05T09:40:41.740Z,0.50
2023-01-05T09:43:23.609Z,0.40
2023-01-05T09:45:52.373Z,0.40
2023-01-05T09:48:22.845Z,0.40
2023-01-05T09:50:51.863Z,0.40
2023-01-05T09:53:30.789Z,0.50
2023-01-05T09:55:59.344Z,0.40
2023-01-05T09:58:31.776Z,0.40
2023-01-05T10:01:08.589Z,0.40
2023-01-05T10:06:35.526Z,0.40
2023-01-05T10:09:06.749Z,0.40
2023-01-05T10:12:01.976Z,0.40
2023-01-05T10:14:36.359Z,0.40
2023-01-05T10:17:39.325Z,0.50
2023-01-05T10:19:54.088Z,0.50
2023-01-05T10:22:38.457Z,0.50
2023-01-05T10:25:13.947Z,0.40
2023-01-05T10:27:53.236Z,0.50
2023-01-05T10:30:26.489Z,0.50
2023-01-05T10:36:01.884Z,0.40
2023-01-05T10:38:43.552Z,0.40
2023-01-05T10:41:22.761Z,0.40
2023-01-05T10:44:21.808Z,0.40
2023-01-05T10:46:52.887Z,0.40
2023-01-05T10:49:25.618Z,0.40
2023-01-05T10:51:57.330Z,0.40
2023-01-05T10:54:35.015Z,0.50
2023-01-05T10:57:36.372Z,0.40
2023-01-05T11:00:10.177Z,0.40
2023-01-05T11:02:40.392Z,0.40
2023-01-05T11:05:23.012Z,0.50
2023-01-05T11:07:54.609Z,0.47
2023-01-05T11:10:25.157Z,0.40
2023-01-05T11:12:56.866Z,0.50
2023-01-05T11:15:25.315Z,0.40
2023-01-05T11:17:53.386Z,0.50
2023-01-05T11:20:22.197Z,0.53
2023-01-05T11:22:51.293Z,0.60
2023-01-05T11:25:27.607Z,0.40
2023-01-05T11:28:14.931Z,0.40
2023-01-05T11:30:59.125Z,0.40
2023-01-05T11:33:29.726Z,0.40
2023-01-05T11:35:58.789Z,0.60
2023-01-05T11:38:29.678Z,0.60
2023-01-05T11:41:01.995Z,0.90
2023-01-05T11:43:33.982Z,0.50
2023-01-05T11:46:04.838Z,0.53
2023-01-05T11:48:35.658Z,0.53
2023-01-05T11:51:03.793Z,0.50
2023-01-05T11:53:39.359Z,0.40
2023-01-05T11:56:19.478Z,0.40
2023-01-05T11:58:49.486Z,0.40
2023-01-05T12:01:44.673Z,0.40
2023-01-05T12:04:35.867Z,0.60
2023-01-05T12:07:14.232Z,0.50
2023-01-05T12:09:47.273Z,0.40
2023-01-05T12:12:37.185Z,0.40
2023-01-05T12:15:31.809Z,0.40
2023-01-05T12:18:11.441Z,0.40
2023-01-05T12:20:55.883Z,0.50
2023-01-05T12:23:43.453Z,0.57
2023-01-05T12:26:24.916Z,0.50
2023-01-05T12:35:39.406Z,0.40
2023-01-05T12:38:38.147Z,0.40
2023-01-05T12:41:28.774Z,0.50
2023-01-05T12:44:20.499Z,0.40
2023-01-05T12:47:02.039Z,0.50
2023-01-05T12:49:36.252Z,0.50
2023-01-05T12:52:12.007Z,0.40
2023-01-05T12:54:45.476Z,0.50
2023-01-05T12:57:17.154Z,0.50
2023-01-05T12:59:53.450Z,0.50
2023-01-05T13:02:30.160Z,0.40
2023-01-05T13:05:03.806Z,1.07
2023-01-05T13:07:34.881Z,0.50
2023-01-05T13:10:06.025Z,0.40
2023-01-05T13:12:35.166Z,0.57
2023-01-05T13:15:15.661Z,0.40
2023-01-05T13:17:47.948Z,0.50
2023-01-05T13:20:28.704Z,0.60
2023-01-05T13:23:02.614Z,0.40
2023-01-05T13:25:36.730Z,0.50
2023-01-05T13:30:40.373Z,1.23
2023-01-05T13:33:31.783Z,0.50
2023-01-05T13:36:09.741Z,0.50
2023-01-05T13:39:11.823Z,0.43
2023-01-05T13:42:16.418Z,0.50
2023-01-05T13:45:04.228Z,0.40
2023-01-05T13:47:50.486Z,0.40
2023-01-05T13:50:42.502Z,0.67
2023-01-05T13:53:15.564Z,0.50
2023-01-05T13:55:49.005Z,0.50
2023-01-05T14:01:14.009Z,0.40
2023-01-05T14:06:26.113Z,0.50
2023-01-05T14:08:59.203Z,1.43
2023-01-05T14:11:28.509Z,0.50
2023-01-05T14:13:59.601Z,0.80
2023-01-05T14:16:47.309Z,0.60
2023-01-05T14:19:21.749Z,0.50
2023-01-05T14:22:26.763Z,1.00
2023-01-05T14:24:55.978Z,0.50
2023-01-05T14:27:25.533Z,0.50
2023-01-05T14:30:27.543Z,0.50
2023-01-05T14:32:56.401Z,0.50
2023-01-05T14:35:31.831Z,0.53
2023-01-05T14:38:02.883Z,0.50
2023-01-05T14:40:38.733Z,0.70
2023-01-05T14:43:20.400Z,0.50
2023-01-05T14:46:00.829Z,0.40
2023-01-05T14:48:32.159Z,0.40
2023-01-05T14:51:18.796Z,0.50
2023-01-05T14:53:48.415Z,1.10
2023-01-05T14:56:20.186Z,1.30
2023-01-05T14:59:14.105Z,1.00
2023-01-05T15:01:48.845Z,0.70
2023-01-05T15:04:22.019Z,2.10
2023-01-05T15:07:19.380Z,0.57
2023-01-05T15:10:14.118Z,1.00
2023-01-05T15:13:09.338Z,0.70
2023-01-05T15:15:45.176Z,0.50
2023-01-05T15:18:35.014Z,1.20
2023-01-05T15:21:34.169Z,1.73
2023-01-05T15:24:25.498Z,1.93
2023-01-05T15:27:13.905Z,1.33
2023-01-05T15:29:59.950Z,0.80
2023-01-05T15:32:31.196Z,0.93
2023-01-05T15:35:09.540Z,0.73
2023-01-05T15:37:39.792Z,1.00
2023-01-05T15:40:28.800Z,1.63
2023-01-05T15:42:59.844Z,1.37
2023-01-05T15:45:31.240Z,1.13
2023-01-05T15:48:02.933Z,0.97
2023-01-05T15:50:36.262Z,1.60
2023-01-05T15:53:04.240Z,1.27
2023-01-05T15:55:33.460Z,1.00
2023-01-05T15:58:03.923Z,2.10
2023-01-05T16:00:34.564Z,0.80
2023-01-05T16:03:03.218Z,1.00
2023-01-05T16:05:34.009Z,1.50
2023-01-05T16:08:06.423Z,0.70
2023-01-05T16:10:40.081Z,0.83
2023-01-05T16:13:13.011Z,0.60
2023-01-05T16:15:42.356Z,0.50
2023-01-05T16:18:16.130Z,1.20
2023-01-05T16:20:46.719Z,1.00
2023-01-05T16:23:19.177Z,0.70
2023-01-05T16:25:53.414Z,0.80
2023-01-05T16:28:23.993Z,1.17
2023-01-05T16:30:53.538Z,1.07
2023-01-05T16:33:35.128Z,1.00
2023-01-05T16:36:12.456Z,0.90
2023-01-05T16:38:41.381Z,1.13
2023-01-05T16:41:20.870Z,1.37
2023-01-05T16:43:55.171Z,0.53
2023-01-05T16:46:32.335Z,1.03
2023-01-05T16:49:04.778Z,1.30
2023-01-05T16:51:42.165Z,1.70
2023-01-05T16:54:20.850Z,0.83
2023-01-05T16:56:58.543Z,1.87
2023-01-05T16:59:45.194Z,1.77
2023-01-05T17:02:47.235Z,0.53
2023-01-05T17:05:17.172Z,0.63
2023-01-05T17:07:47.220Z,0.77
2023-01-05T17:10:22.401Z,1.30
2023-01-05T17:12:58.829Z,1.97
2023-01-05T17:15:30.449Z,2.50
2023-01-05T17:17:58.688Z,2.67
2023-01-05T17:20:30.548Z,2.07
2023-01-05T17:22:58.566Z,4.27
2023-01-05T17:25:33.132Z,1.80
2023-01-05T17:28:02.395Z,1.33
2023-01-05T17:30:30.542Z,2.57
2023-01-05T17:32:58.501Z,1.27
2023-01-05T17:35:26.403Z,2.90
2023-01-05T17:37:54.317Z,2.70
2023-01-05T17:40:23.378Z,2.00
2023-01-05T17:42:51.327Z,2.33
2023-01-05T17:45:23.239Z,0.80
2023-01-05T17:47:52.251Z,0.77
2023-01-05T17:50:23.982Z,0.80
2023-01-05T17:52:51.913Z,1.77
2023-01-05T17:55:19.968Z,0.73
2023-01-05T17:57:48.521Z,0.50
2023-01-05T18:00:20.781Z,1.33
2023-01-05T18:02:52.453Z,1.33
2023-01-05T18:05:20.972Z,0.70
2023-01-05T18:07:50.071Z,1.70
2023-01-05T18:10:20.712Z,0.90
2023-01-05T18:12:49.118Z,2.30
2023-01-05T18:15:17.601Z,2.00
2023-01-05T18:17:45.548Z,1.87
2023-01-05T18:20:17.719Z,1.27
2023-01-05T18:22:47.968Z,1.40
2023-01-05T18:25:15.950Z,0.90
2023-01-05T18:27:43.867Z,1.00
2023-01-05T18:30:13.207Z,1.53
2023-01-05T18:32:42.187Z,1.10
2023-01-05T18:35:11.085Z,2.50
2023-01-05T18:37:41.313Z,0.90
2023-01-05T18:40:10.632Z,0.87
2023-01-05T18:42:39.004Z,1.10
2023-01-05T18:45:19.052Z,1.33
2023-01-05T18:47:56.832Z,1.00
2023-01-05T18:50:25.052Z,1.20
2023-01-05T18:52:54.305Z,1.47
2023-01-05T18:55:22.218Z,0.97
2023-01-05T18:57:50.102Z,1.33
2023-01-05T19:00:18.352Z,0.70
2023-01-05T19:02:46.243Z,1.00
2023-01-05T19:05:14.123Z,1.13
2023-01-05T19:07:42.234Z,0.90
2023-01-05T19:10:11.671Z,0.83
2023-01-05T19:12:39.592Z,0.97
2023-01-05T19:15:08.469Z,1.00
2023-01-05T19:17:36.387Z,0.80
2023-01-05T19:20:04.553Z,0.80
2023-01-05T19:22:34.488Z,0.47
2023-01-05T19:25:02.506Z,0.77
2023-01-05T19:27:31.793Z,0.73
2023-01-05T19:29:59.715Z,0.60
2023-01-05T19:32:27.628Z,0.60
2023-01-05T19:34:55.525Z,0.97
2023-01-05T19:37:23.452Z,0.90
2023-01-05T19:39:51.362Z,0.60
2023-01-05T19:42:19.286Z,0.60
2023-01-05T19:44:48.968Z,0.87
2023-01-05T19:47:16.872Z,1.00
2023-01-05T19:49:44.778Z,0.57
2023-01-05T19:52:13.795Z,0.70
2023-01-05T19:54:42.608Z,0.83
2023-01-05T19:57:10.561Z,0.60
2023-01-05T19:59:38.473Z,0.70
2023-01-05T20:02:07.921Z,0.90
2023-01-05T20:04:36.073Z,0.90
2023-01-05T20:07:07.096Z,0.70
2023-01-05T20:09:35.236Z,0.63
2023-01-05T20:12:13.822Z,0.83
2023-01-05T20:14:42.933Z,0.50
2023-01-05T20:17:12.792Z,0.80
2023-01-05T20:19:41.065Z,0.40
2023-01-05T20:22:13.704Z,0.60
2023-01-05T20:24:42.836Z,0.50
2023-01-05T20:27:14.138Z,0.60
2023-01-05T20:29:42.058Z,0.50
2023-01-05T20:32:14.591Z,1.00
2023-01-05T20:34:44.376Z,0.90
2023-01-05T20:37:13.125Z,0.80
2023-01-05T20:39:42.568Z,0.70
2023-01-05T20:42:11.444Z,0.47
2023-01-05T20:44:41.177Z,0.50
2023-01-05T20:47:09.296Z,0.90
2023-01-05T20:49:40.099Z,0.70
2023-01-05T20:52:09.245Z,0.60
2023-01-05T20:54:37.446Z,0.50
2023-01-05T20:57:05.790Z,0.70
2023-01-05T20:59:35.739Z,0.50
2023-01-05T21:02:12.293Z,0.87
2023-01-05T21:04:47.579Z,0.70
2023-01-05T21:07:15.482Z,0.50
2023-01-05T21:09:43.602Z,0.60
2023-01-05T21:12:11.513Z,0.90
2023-01-05T21:14:39.712Z,0.77
2023-01-05T21:17:08.539Z,0.50
2023-01-05T21:19:36.430Z,0.57
2023-01-05T21:22:05.668Z,0.63
2023-01-05T21:24:33.544Z,0.70
2023-01-05T21:27:01.486Z,0.70
2023-01-05T21:29:29.345Z,0.90
2023-01-05T21:31:57.597Z,0.70
2023-01-05T21:34:26.043Z,0.40
2023-01-05T21:36:54.113Z,0.70
2023-01-05T21:39:28.252Z,0.50
2023-01-05T21:42:13.720Z,2.00
2023-01-05T21:44:41.712Z,0.60
2023-01-05T21:47:10.015Z,0.50
2023-01-05T21:49:38.119Z,0.50
2023-01-05T21:52:24.271Z,0.70
2023-01-05T21:55:10.990Z,0.50
2023-01-05T21:57:38.937Z,0.50
2023-01-05T22:00:08.474Z,0.87
2023-01-05T22:02:36.393Z,1.27
2023-01-05T22:05:04.757Z,0.50
2023-01-05T22:07:32.729Z,0.70
2023-01-05T22:10:02.017Z,0.50
2023-01-05T22:12:29.951Z,0.80
2023-01-05T22:14:58.111Z,0.50
2023-01-05T22:17:26.056Z,0.77
2023-01-05T22:19:54.264Z,0.40
2023-01-05T22:22:22.530Z,0.50
2023-01-05T22:24:50.481Z,0.90
2023-01-05T22:27:19.924Z,0.50
2023-01-05T22:29:47.835Z,0.50
2023-01-05T22:32:15.779Z,0.50
2023-01-05T22:34:45.250Z,0.53
2023-01-05T22:37:13.529Z,0.90
2023-01-05T22:39:41.445Z,0.93
2023-01-05T22:42:09.562Z,1.00
2023-01-05T22:44:39.029Z,0.60
2023-01-05T22:47:06.939Z,0.60
2023-01-05T22:49:34.841Z,0.80
2023-01-05T22:52:02.909Z,0.90
2023-01-05T22:54:31.648Z,0.83
2023-01-05T22:56:59.590Z,1.33
2023-01-05T22:59:28.635Z,1.00
2023-01-05T23:01:58.166Z,1.30
2023-01-05T23:04:26.105Z,0.80
2023-01-05T23:06:54.013Z,1.17
2023-01-05T23:09:22.040Z,1.23
2023-01-05T23:11:50.015Z,1.17
2023-01-05T23:14:19.035Z,0.50
2023-01-05T23:16:47.517Z,0.80
2023-01-05T23:19:17.277Z,1.20
2023-01-05T23:21:46.306Z,0.70
2023-01-05T23:24:14.230Z,0.60
2023-01-05T23:26:42.163Z,1.47
2023-01-05T23:29:10.137Z,0.50
2023-01-05T23:31:38.059Z,1.93
2023-01-05T23:34:05.988Z,1.43
2023-01-05T23:36:35.225Z,0.57
2023-01-05T23:39:03.142Z,0.60
2023-01-05T23:41:31.361Z,1.27
2023-01-05T23:43:59.276Z,0.77
2023-01-05T23:46:27.220Z,1.77
2023-01-05T23:48:55.224Z,0.73
2023-01-05T23:51:24.496Z,0.80
2023-01-05T23:53:54.814Z,0.87
2023-01-05T23:56:24.190Z,1.40
2023-01-05T23:58:57.105Z,0.50
